Latest Weather Observations for Launceston

IDT60801

Issued at 9:01 pm EST Wednesday 29 July 2015 (issued every 30 minutes, with the page automatically refreshed every 10 minutes)

About weather observations | Map of weather stations | Latest weather observations for TAS | Other Formats
Station Details ID: 091237 Name: LAUNCESTON (TI TREE BEND) Lat: -41.42 Lon: 147.12 Height: 5.0 m
Data from the previous 72 hours. | See also: Recent months at Launceston
Date/Time
EST
Temp
°C
App
Temp
°C
Dew
Point
Rel
Hum
%
Delta-T
°C
Wind Press
QNH
hPa
Press
MSL
hPa
Rain
since 9 am
mm
Dir
 
Spd
km/h
Gust
km/h
Spd
kts
Gust
kts
29/09:00pm 9.2 6.8 8.6 96 0.3 NNW 11 15 6 8 - - 0.4
29/08:30pm 8.9 6.8 8.3 96 0.3 NNW 9 13 5 7 - - 0.4
29/08:00pm 9.2 6.8 8.7 97 0.2 NNW 11 15 6 8 - - 0.4
29/07:30pm 8.9 7.2 8.3 96 0.3 NNW 7 11 4 6 - - 0.4
29/07:00pm 8.9 7.4 8.3 96 0.3 NW 6 7 3 4 - - 0.4
29/06:30pm 8.9 6.8 8.1 95 0.4 NNW 9 13 5 7 - - 0.4
29/06:00pm 9.3 7.3 8.5 95 0.4 NNW 9 13 5 7 - - 0.4
29/05:30pm 9.5 6.3 8.6 94 0.4 N 15 22 8 12 - - 0.4
29/05:00pm 9.6 7.2 8.8 95 0.4 NNW 11 19 6 10 - - 0.4
29/04:30pm 9.7 7.0 8.8 94 0.4 NNW 13 22 7 12 - - 0.4
29/04:00pm 9.8 6.7 8.9 94 0.4 NNW 15 26 8 14 - - 0.2
29/03:30pm 9.9 6.8 9.0 94 0.4 NNW 15 26 8 14 - - 0.2
29/03:00pm 11.7 8.1 8.2 79 1.7 NNW 17 28 9 15 - - 0.0
29/02:30pm 11.7 8.5 8.4 80 1.6 NNW 15 20 8 11 - - 0.0
29/02:00pm 11.5 7.9 8.2 80 1.6 NNW 17 24 9 13 - - 0.0
29/01:30pm 11.6 8.3 7.9 78 1.8 NNW 15 22 8 12 - - 0.0
29/01:00pm 12.4 8.4 8.1 75 2.1 NNW 19 28 10 15 - - 0.0
29/12:30pm 12.4 10.1 8.9 79 1.8 NNW 11 17 6 9 - - 0.0
29/12:00pm 11.0 8.4 7.7 80 1.6 NNW 11 17 6 9 - - 0.0
29/11:30am 10.6 7.9 7.5 81 1.5 NW 11 17 6 9 - - 0.0
29/11:00am 10.7 7.3 7.8 82 1.4 NNW 15 24 8 13 - - 0.0
29/10:30am 10.1 6.3 7.5 84 1.2 NNW 17 26 9 14 - - 0.0
29/10:00am 8.6 6.9 8.3 98 0.1 NNW 7 13 4 7 - - 0.0
29/09:30am 6.2 4.2 6.1 99 0.0 NW 6 7 3 4 - - 0.0
29/09:00am 3.4 2.0 3.3 99 0.0 CALM 0 2 0 1 - - 0.0
29/08:30am 1.8 0.1 1.7 99 0.0 CALM 0 0 0 0 - - 0.0
29/08:00am 1.1 -0.7 1.0 99 0.0 CALM 0 0 0 0 - - 0.0
29/07:30am 1.0 -0.8 0.9 99 0.0 CALM 0 0 0 0 - - 0.0
29/07:00am 1.4 -0.4 1.3 99 0.0 CALM 0 0 0 0 - - 0.0
29/06:30am 1.5 -0.3 1.4 99 0.0 CALM 0 0 0 0 - - 0.0
29/06:00am 1.5 -0.3 1.4 99 0.0 CALM 0 0 0 0 - - 0.0
29/05:30am 1.8 0.1 1.7 99 0.0 CALM 0 0 0 0 - - 0.0
29/05:00am 2.0 0.3 1.7 98 0.1 CALM 0 0 0 0 - - 0.0
29/04:30am 2.2 0.1 1.9 98 0.1 ENE 2 4 1 2 - - 0.0
29/04:00am 2.1 -0.4 1.8 98 0.1 S 4 4 2 2 - - 0.0
29/03:30am 2.5 0.9 2.2 98 0.1 CALM 0 0 0 0 - - 0.0
29/03:00am 2.0 -0.1 1.7 98 0.1 SSE 2 4 1 2 - - 0.0
29/02:30am 2.4 0.7 2.1 98 0.1 CALM 0 0 0 0 - - 0.0
29/02:00am 3.1 1.6 2.8 98 0.1 CALM 0 0 0 0 - - 0.0
29/01:30am 3.1 1.2 2.8 98 0.1 ENE 2 4 1 2 - - 0.0
29/01:00am 3.6 2.2 3.3 98 0.1 CALM 0 0 0 0 - - 0.0
29/12:30am 3.7 2.3 3.3 97 0.2 CALM 0 0 0 0 - - 0.0
29/12:00am 4.3 2.2 3.9 97 0.2 WSW 4 6 2 3 - - 0.0
 
Date/Time
EST
Temp
°C
App
Temp
°C
Dew
Point
Rel
Hum
%
Delta-T
°C
Wind Press
QNH
hPa
Press
MSL
hPa
Rain
since 9 am
mm
Dir
 
Spd
km/h
Gust
km/h
Spd
kts
Gust
kts
28/11:30pm 4.3 2.2 3.9 97 0.2 S 4 6 2 3 - - 0.0
28/11:00pm 4.5 2.4 3.9 96 0.3 NNW 4 6 2 3 - - 0.0
28/10:30pm 4.7 2.3 4.1 96 0.3 SW 6 6 3 3 - - 0.0
28/10:00pm 4.8 3.5 4.2 96 0.3 CALM 0 6 0 3 - - 0.0
28/09:30pm 5.0 3.0 4.4 96 0.3 NNW 4 6 2 3 - - 0.0
28/09:00pm 6.0 4.6 5.4 96 0.3 WSW 2 6 1 3 - - 0.0
28/08:30pm 6.0 4.9 5.3 95 0.3 CALM 0 0 0 0 - - 0.0
28/08:00pm 6.4 4.9 5.2 92 0.5 N 2 6 1 3 - - 0.0
28/07:30pm 7.6 5.7 6.5 93 0.5 NW 6 7 3 4 - - 0.0
28/07:00pm 8.8 6.5 7.6 92 0.6 NNW 9 13 5 7 - - 0.0
28/06:30pm 8.7 6.9 7.3 91 0.7 NW 6 9 3 5 - - 0.0
28/06:00pm 9.5 7.8 7.6 88 0.9 NNW 6 7 3 4 - - 0.0
28/05:30pm 10.7 8.9 8.1 84 1.3 NW 7 9 4 5 - - 0.0
28/05:00pm 11.8 10.3 8.6 81 1.6 NW 6 9 3 5 - - 0.0
28/04:30pm 12.3 10.3 8.8 79 1.7 NW 9 13 5 7 - - 0.0
28/04:00pm 13.8 11.3 8.4 70 2.7 NNW 11 17 6 9 - - 0.0
28/03:30pm 14.1 11.2 8.1 67 3.0 NNW 13 20 7 11 - - 0.0
28/03:00pm 15.0 12.7 7.5 61 3.7 NW 9 17 5 9 - - 0.0
28/02:30pm 13.6 11.5 8.2 70 2.7 NNW 9 15 5 8 - - 0.0
28/02:00pm 13.9 11.9 7.2 64 3.3 N 7 11 4 6 - - 0.0
28/01:30pm 14.1 11.8 7.4 64 3.3 NNW 9 13 5 7 - - 0.0
28/01:00pm 13.6 10.4 6.7 63 3.3 NNW 13 20 7 11 - - 0.0
28/12:30pm 13.1 10.0 7.1 67 2.9 NW 13 20 7 11 - - 0.0
28/12:00pm 12.8 9.1 6.4 65 3.0 NNW 15 22 8 12 - - 0.0
28/11:30am 12.5 9.8 7.2 70 2.6 NNW 11 17 6 9 - - 0.0
28/11:00am 10.9 8.4 6.6 75 2.0 NW 9 15 5 8 - - 0.0
28/10:30am 9.6 7.4 6.3 80 1.5 NW 7 11 4 6 - - 0.0
28/10:00am 8.5 7.2 7.6 94 0.4 N 4 6 2 3 - - 0.0
28/09:30am 5.3 4.1 4.7 96 0.3 CALM 0 0 0 0 - - 0.0
28/09:00am 4.9 3.3 4.6 98 0.1 SSW 2 4 1 2 - - 0.0
28/08:30am 3.3 1.0 3.0 98 0.1 E 4 4 2 2 - - 0.0
28/08:00am 2.5 0.9 2.2 98 0.1 CALM 0 0 0 0 - - 0.0
28/07:30am 2.4 0.4 2.1 98 0.1 SE 2 6 1 3 - - 0.0
28/07:00am 2.6 -0.2 2.3 98 0.1 W 6 7 3 4 - - 0.0
28/06:30am 2.0 -0.1 1.7 98 0.1 SSE 2 4 1 2 - - 0.0
28/06:00am 1.6 -0.2 1.3 98 0.1 CALM 0 0 0 0 - - 0.0
28/05:30am 1.4 -0.4 1.1 98 0.1 CALM 0 0 0 0 - - 0.0
28/05:00am 1.1 -1.1 0.8 98 0.1 S 2 2 1 1 - - 0.0
28/04:30am 1.5 -0.3 1.2 98 0.1 CALM 0 0 0 0 - - 0.0
28/04:00am 1.7 -0.1 1.3 97 0.2 CALM 0 0 0 0 - - 0.0
28/03:30am 1.9 0.1 1.5 97 0.2 CALM 0 0 0 0 - - 0.0
28/03:00am 2.5 0.1 2.1 97 0.2 NW 4 6 2 3 - - 0.0
28/02:30am 2.0 -0.1 1.4 96 0.2 SW 2 4 1 2 - - 0.0
28/02:00am 2.8 0.0 2.2 96 0.2 E 6 9 3 5 - - 0.0
28/01:30am 3.6 0.8 2.9 95 0.3 N 7 9 4 5 - - 0.0
28/01:00am 3.3 0.9 2.4 94 0.4 E 4 7 2 4 - - 0.0
28/12:30am 3.9 1.3 3.2 95 0.3 NNW 6 7 3 4 - - 0.0
28/12:00am 2.2 0.0 0.9 91 0.5 N 2 4 1 2 - - 0.0
 
Date/Time
EST
Temp
°C
App
Temp
°C
Dew
Point
Rel
Hum
%
Delta-T
°C
Wind Press
QNH
hPa
Press
MSL
hPa
Rain
since 9 am
mm
Dir
 
Spd
km/h
Gust
km/h
Spd
kts
Gust
kts
27/11:30pm 3.3 0.9 2.0 91 0.5 NW 4 6 2 3 - - 0.0
27/11:00pm 4.2 1.9 2.6 89 0.6 NW 4 6 2 3 - - 0.0
27/10:30pm 5.2 2.5 2.9 85 0.9 NNW 6 7 3 4 - - 0.0
27/10:00pm 6.1 3.3 3.4 83 1.1 WNW 7 11 4 6 - - 0.0
27/09:30pm 5.4 2.6 2.9 84 1.0 WNW 7 9 4 5 - - 0.0
27/09:00pm 5.7 3.1 3.4 85 1.0 NW 6 7 3 4 - - 0.0
27/08:30pm 5.8 3.1 3.8 87 0.8 NNW 7 9 4 5 - - 0.0
27/08:00pm 6.3 3.6 3.6 83 1.1 NNW 7 9 4 5 - - 0.0
27/07:30pm 5.8 3.3 3.5 85 1.0 NNW 6 6 3 3 - - 0.0
27/07:00pm 6.1 3.5 3.3 82 1.2 WNW 6 7 3 4 - - 0.0
27/06:30pm 6.4 3.6 3.2 80 1.3 W 7 9 4 5 - - 0.0
27/06:00pm 7.9 5.2 3.6 74 1.8 WNW 7 11 4 6 - - 0.0
27/05:30pm 9.4 6.7 3.8 68 2.4 NW 7 13 4 7 - - 0.0
27/05:00pm 11.0 7.9 3.8 61 3.2 W 9 17 5 9 - - 0.0
27/04:30pm 11.8 9.3 3.8 58 3.6 W 6 7 3 4 - - 0.0
27/04:00pm 11.3 10.5 6.4 72 2.3 CALM 0 4 0 2 - - 0.0
27/03:30pm 11.2 9.6 6.3 72 2.3 ESE 4 6 2 3 - - 0.0
27/03:00pm 11.9 9.2 5.8 66 2.8 SE 9 13 5 7 - - 0.0
27/02:30pm 11.5 9.1 5.4 66 2.8 NNW 7 11 4 6 - - 0.0
27/02:00pm 11.7 8.5 5.1 64 3.0 NW 11 15 6 8 - - 0.0
27/01:30pm 12.5 10.1 4.2 57 3.8 WNW 6 11 3 6 - - 0.0
27/01:00pm 12.2 9.5 5.4 63 3.2 NW 9 17 5 9 - - 0.0
27/12:30pm 11.5 9.0 4.9 64 3.0 W 7 13 4 7 - - 0.0
27/12:00pm 11.4 7.5 5.5 67 2.7 NW 15 28 8 15 - - 0.0
27/11:30am 9.9 5.5 4.9 71 2.2 NW 17 28 9 15 - - 0.0
27/11:00am 9.8 5.3 4.0 67 2.6 WNW 17 30 9 16 - - 0.0
27/10:30am 8.4 4.6 3.8 73 2.0 NNW 13 20 7 11 - - 0.0
27/10:00am 7.2 2.4 2.7 73 1.9 NNW 17 24 9 13 - - 0.0
27/09:30am 6.8 3.1 2.1 72 1.9 N 11 17 6 9 - - 0.0
27/09:00am 5.6 3.2 1.9 77 1.5 N 4 9 2 5 - - 0.2
27/08:30am 3.1 0.4 0.5 83 1.0 ESE 4 6 2 3 - - 0.2
27/08:00am 3.0 0.0 0.7 85 0.9 NNW 6 9 3 5 - - 0.2
27/07:30am 1.8 -1.5 -0.1 87 0.7 WNW 7 11 4 6 - - 0.2
27/07:00am 2.7 -0.4 0.1 83 1.0 N 6 9 3 5 - - 0.2
27/06:30am 2.9 -0.4 -1.1 75 1.4 NNW 6 9 3 5 - - 0.2
27/06:00am 2.8 0.0 -0.3 80 1.1 WSW 4 7 2 4 - - 0.2
27/05:30am 2.7 -0.6 -0.2 81 1.1 N 7 11 4 6 - - 0.2
27/05:00am 2.7 0.2 -0.7 78 1.2 SE 2 6 1 3 - - 0.2
27/04:30am 3.6 -0.2 -0.6 74 1.5 WNW 9 17 5 9 - - 0.2
27/04:00am 5.2 1.7 -1.5 62 2.5 NNE 7 15 4 8 - - 0.2
27/03:30am 4.3 0.2 -0.5 71 1.8 NNW 11 17 6 9 - - 0.2
27/03:00am 4.8 1.5 -1.2 65 2.2 NNE 6 9 3 5 - - 0.2
27/02:30am 5.0 0.8 -0.6 67 2.1 NNW 11 19 6 10 - - 0.2
27/02:00am 4.6 1.5 0.4 74 1.6 NNW 6 11 3 6 - - 0.2
27/01:30am 5.5 1.4 -0.5 65 2.3 NNW 11 17 6 9 - - 0.2
27/01:00am 6.3 1.8 -0.4 62 2.6 WNW 13 32 7 17 - - 0.2
27/12:30am 4.5 0.7 1.5 81 1.2 WNW 11 15 6 8 - - 0.2
27/12:00am 4.6 1.6 1.8 82 1.1 WNW 7 11 4 6 - - 0.2
 
Date/Time
EST
Temp
°C
App
Temp
°C
Dew
Point
Rel
Hum
%
Delta-T
°C
Wind Press
QNH
hPa
Press
MSL
hPa
Rain
since 9 am
mm
Dir
 
Spd
km/h
Gust
km/h
Spd
kts
Gust
kts
26/11:30pm 4.5 1.6 1.5 81 1.2 W 6 7 3 4 - - 0.2
26/11:00pm 5.1 1.7 2.1 81 1.2 NW 9 13 5 7 - - 0.2
26/10:30pm 5.2 2.2 2.0 80 1.3 NW 7 11 4 6 - - 0.2
26/10:00pm 5.6 2.3 2.4 80 1.3 WNW 9 13 5 7 - - 0.2
26/09:30pm 5.7 3.0 2.9 82 1.2 NW 6 11 3 6 - - 0.2

Other Formats:

Comma delimited format used in spreadsheet applications
http://www.bom.gov.au/fwo/IDT60801/IDT60801.94969.axf

JavaScript Object Notation format (JSON) in row-major order
http://www.bom.gov.au/fwo/IDT60801/IDT60801.94969.json